Time,TemperatureF,DewpointF,PressureIn,WindDirection,WindDirectionDegrees,WindSpeedMPH,WindSpeedGustMPH,Humidity,HourlyPrecipIn,Conditions,Clouds,dailyrainin,SoftwareType,DateUTC
2013-02-19 00:01:00,6.8,-8.7,31.00,WNW,296,0.0,0.0,48,0.00,,,0.00,Weather View 32 v70,2013-02-19 07:01:00,
2013-02-19 00:06:00,6.8,-8.7,31.00,WNW,289,0.0,0.0,48,0.00,,,0.00,Weather View 32 v70,2013-02-19 07:06:00,
2013-02-19 00:11:00,6.8,-8.7,31.00,WNW,289,0.0,0.0,48,0.00,,,0.00,Weather View 32 v70,2013-02-19 07:11:00,
2013-02-19 00:16:00,6.8,-8.7,31.00,WNW,289,0.0,0.0,48,0.00,,,0.00,Weather View 32 v70,2013-02-19 07:16:00,
2013-02-19 00:21:00,6.6,-8.9,31.00,WSW,258,0.0,0.0,48,0.00,,,0.00,Weather View 32 v70,2013-02-19 07:21:00,
2013-02-19 00:26:00,6.8,-8.7,31.00,NW,305,0.0,0.0,48,0.00,,,0.00,Weather View 32 v70,2013-02-19 07:26:00,
2013-02-19 00:31:00,6.8,-8.7,31.00,West,273,0.0,0.0,48,0.00,,,0.00,Weather View 32 v70,2013-02-19 07:31:00,
2013-02-19 00:36:00,6.8,-8.7,31.00,WNW,283,0.0,0.0,48,0.00,,,0.00,Weather View 32 v70,2013-02-19 07:36:00,
2013-02-19 00:41:00,6.8,-8.7,31.00,WNW,283,0.0,0.0,48,0.00,,,0.00,Weather View 32 v70,2013-02-19 07:41:00,
2013-02-19 00:46:00,6.8,-8.7,31.00,West,279,0.0,0.0,48,0.00,,,0.00,Weather View 32 v70,2013-02-19 07:46:00,
2013-02-19 00:51:00,6.6,-8.9,31.00,WSW,248,0.0,0.0,48,0.00,,,0.00,Weather View 32 v70,2013-02-19 07:51:00,
2013-02-19 00:56:00,6.8,-8.7,31.00,NW,312,0.0,0.0,48,0.00,,,0.00,Weather View 32 v70,2013-02-19 07:56:00,
2013-02-19 01:01:00,6.8,-8.7,31.00,NW,312,0.0,0.0,48,0.00,,,0.00,Weather View 32 v70,2013-02-19 08:01:00,
2013-02-19 01:06:00,6.6,-8.9,31.00,NW,312,0.0,0.0,48,0.00,,,0.00,Weather View 32 v70,2013-02-19 08:06:00,
2013-02-19 01:11:00,6.8,-8.7,31.00,WSW,254,0.0,0.0,48,0.00,,,0.00,Weather View 32 v70,2013-02-19 08:11:00,
2013-02-19 01:16:00,7.0,-8.6,31.00,WSW,257,0.0,0.0,48,0.00,,,0.00,Weather View 32 v70,2013-02-19 08:16:00,
2013-02-19 01:21:00,7.0,-8.6,31.00,West,267,0.0,0.0,48,0.00,,,0.00,Weather View 32 v70,2013-02-19 08:21:00,
2013-02-19 01:26:00,7.2,-8.4,31.00,WSW,251,0.0,0.0,48,0.00,,,0.00,Weather View 32 v70,2013-02-19 08:26:00,
2013-02-19 01:31:00,7.2,-8.4,31.00,WSW,251,0.0,0.0,48,0.00,,,0.00,Weather View 32 v70,2013-02-19 08:31:00,
2013-02-19 01:36:00,7.3,-8.2,31.00,WSW,251,0.0,0.0,48,0.00,,,0.00,Weather View 32 v70,2013-02-19 08:36:00,
2013-02-19 01:41:00,7.5,-8.1,31.00,WSW,251,0.0,0.0,48,0.00,,,0.00,Weather View 32 v70,2013-02-19 08:41:00,
2013-02-19 01:46:00,7.5,-8.1,31.00,WSW,251,0.0,0.0,48,0.00,,,0.00,Weather View 32 v70,2013-02-19 08:46:00,
2013-02-19 01:51:00,7.5,-8.1,31.00,WSW,251,0.0,0.0,48,0.00,,,0.00,Weather View 32 v70,2013-02-19 08:51:00,
2013-02-19 01:56:00,7.9,-7.7,31.00,WSW,251,0.0,0.0,48,0.00,,,0.00,Weather View 32 v70,2013-02-19 08:56:00,
2013-02-19 02:01:00,8.1,-7.6,31.00,WSW,251,0.0,0.0,48,0.00,,,0.00,Weather View 32 v70,2013-02-19 09:01:00,
2013-02-19 02:06:00,8.2,-7.4,31.00,WSW,250,0.0,0.0,48,0.00,,,0.00,Weather View 32 v70,2013-02-19 09:06:00,
2013-02-19 02:11:00,8.8,-6.9,31.00,WSW,249,0.0,0.0,48,0.00,,,0.00,Weather View 32 v70,2013-02-19 09:11:00,
2013-02-19 02:16:00,9.1,-6.6,31.00,WSW,249,0.0,0.0,48,0.00,,,0.00,Weather View 32 v70,2013-02-19 09:16:00,
2013-02-19 02:21:00,9.5,-6.2,31.00,West,275,0.0,0.0,48,0.00,,,0.00,Weather View 32 v70,2013-02-19 09:21:00,
2013-02-19 02:26:00,10.0,-5.7,31.00,SW,233,0.0,0.0,48,0.00,,,0.00,Weather View 32 v70,2013-02-19 09:26:00,
2013-02-19 02:31:00,10.4,-5.4,31.00,WSW,244,0.0,0.0,48,0.00,,,0.00,Weather View 32 v70,2013-02-19 09:31:00,
2013-02-19 02:36:00,10.8,-5.1,31.00,WSW,245,0.0,0.0,48,0.00,,,0.00,Weather View 32 v70,2013-02-19 09:36:00,
2013-02-19 02:41:00,10.8,-5.1,31.00,WSW,246,0.0,0.0,48,0.00,,,0.00,Weather View 32 v70,2013-02-19 09:41:00,
2013-02-19 02:46:00,11.1,-4.7,31.00,West,264,0.0,0.0,48,0.00,,,0.00,Weather View 32 v70,2013-02-19 09:46:00,
2013-02-19 02:51:00,11.3,-4.6,31.00,West,264,0.0,0.0,48,0.00,,,0.00,Weather View 32 v70,2013-02-19 09:51:00,
2013-02-19 02:56:00,11.3,-4.6,31.00,WSW,251,0.0,0.0,48,0.00,,,0.00,Weather View 32 v70,2013-02-19 09:56:00,
2013-02-19 03:01:00,11.5,-4.4,31.00,WSW,251,0.0,0.0,48,0.00,,,0.00,Weather View 32 v70,2013-02-19 10:01:00,
2013-02-19 03:06:00,11.3,-4.6,31.00,WSW,251,0.0,0.0,48,0.00,,,0.00,Weather View 32 v70,2013-02-19 10:06:00,
2013-02-19 03:11:00,11.3,-4.6,31.00,WSW,251,0.0,0.0,48,0.00,,,0.00,Weather View 32 v70,2013-02-19 10:11:00,
2013-02-19 03:15:00,11.5,-4.4,31.00,WSW,251,0.0,0.0,48,0.00,,,0.00,Weather View 32 v70,2013-02-19 10:15:00,
2013-02-19 03:25:00,11.7,-4.2,31.00,WSW,251,0.0,0.0,48,0.00,,,0.00,Weather View 32 v70,2013-02-19 10:25:00,
2013-02-19 03:30:00,11.7,-4.2,31.00,WSW,251,0.0,0.0,48,0.00,,,0.00,Weather View 32 v70,2013-02-19 10:30:00,
2013-02-19 03:35:00,11.7,-4.2,31.00,WSW,251,0.0,0.0,48,0.00,,,0.00,Weather View 32 v70,2013-02-19 10:35:00,
2013-02-19 03:40:00,11.7,-4.2,31.00,WSW,251,0.0,0.0,48,0.00,,,0.00,Weather View 32 v70,2013-02-19 10:40:00,
2013-02-19 03:45:00,11.7,-4.2,31.00,WSW,251,0.0,0.0,48,0.00,,,0.00,Weather View 32 v70,2013-02-19 10:45:00,
2013-02-19 03:50:00,11.8,-4.1,31.00,WSW,251,0.0,0.0,48,0.00,,,0.00,Weather View 32 v70,2013-02-19 10:50:00,
2013-02-19 03:55:00,11.8,-4.1,31.00,WSW,251,0.0,0.0,48,0.00,,,0.00,Weather View 32 v70,2013-02-19 10:55:00,
2013-02-19 04:00:00,11.7,-4.2,31.00,WSW,251,0.0,0.0,48,0.00,,,0.00,Weather View 32 v70,2013-02-19 11:00:00,
2013-02-19 04:05:00,11.3,-4.6,31.00,WSW,251,0.0,0.0,48,0.00,,,0.00,Weather View 32 v70,2013-02-19 11:05:00,
2013-02-19 04:10:00,11.3,-4.6,31.00,WSW,250,0.0,0.0,48,0.00,,,0.00,Weather View 32 v70,2013-02-19 11:10:00,
2013-02-19 04:15:00,11.3,-4.6,31.00,West,278,0.0,0.0,48,0.00,,,0.00,Weather View 32 v70,2013-02-19 11:15:00,
2013-02-19 04:20:00,11.1,-4.7,31.00,West,278,0.0,0.0,48,0.00,,,0.00,Weather View 32 v70,2013-02-19 11:20:00,
2013-02-19 04:25:00,10.9,-4.9,31.00,West,277,0.0,0.0,48,0.00,,,0.00,Weather View 32 v70,2013-02-19 11:25:00,
2013-02-19 04:30:00,10.4,-5.4,31.00,West,277,0.0,0.0,48,0.00,,,0.00,Weather View 32 v70,2013-02-19 11:30:00,
2013-02-19 04:35:00,10.2,-5.6,31.00,West,277,0.0,0.0,48,0.00,,,0.00,Weather View 32 v70,2013-02-19 11:35:00,
2013-02-19 04:40:00,10.0,-5.7,31.00,West,277,0.0,0.0,48,0.00,,,0.00,Weather View 32 v70,2013-02-19 11:40:00,
2013-02-19 04:45:00,10.0,-5.7,31.00,West,277,0.0,0.0,48,0.00,,,0.00,Weather View 32 v70,2013-02-19 11:45:00,
2013-02-19 04:50:00,10.0,-5.7,31.00,West,277,0.0,0.0,48,0.00,,,0.00,Weather View 32 v70,2013-02-19 11:50:00,
2013-02-19 04:55:00,10.0,-5.7,31.00,West,277,0.0,0.0,48,0.00,,,0.00,Weather View 32 v70,2013-02-19 11:55:00,
2013-02-19 05:00:00,9.9,-5.9,31.00,West,277,0.0,0.0,48,0.00,,,0.00,Weather View 32 v70,2013-02-19 12:00:00,
2013-02-19 05:05:00,9.9,-5.9,31.00,West,277,0.0,0.0,48,0.00,,,0.00,Weather View 32 v70,2013-02-19 12:05:00,
2013-02-19 05:10:00,9.9,-5.9,31.00,West,277,0.0,0.0,48,0.00,,,0.00,Weather View 32 v70,2013-02-19 12:10:00,
2013-02-19 05:15:00,10.2,-5.6,31.00,West,277,0.0,0.0,48,0.00,,,0.00,Weather View 32 v70,2013-02-19 12:15:00,
2013-02-19 05:20:00,10.4,-5.4,31.00,West,277,0.0,0.0,48,0.00,,,0.00,Weather View 32 v70,2013-02-19 12:20:00,
2013-02-19 05:25:00,10.8,-5.1,31.00,West,277,0.0,0.0,48,0.00,,,0.00,Weather View 32 v70,2013-02-19 12:25:00,
2013-02-19 05:30:00,10.8,-5.1,31.00,West,277,0.0,0.0,48,0.00,,,0.00,Weather View 32 v70,2013-02-19 12:30:00,
2013-02-19 05:35:00,10.9,-4.9,31.00,West,270,0.0,0.0,48,0.00,,,0.00,Weather View 32 v70,2013-02-19 12:35:00,
2013-02-19 05:40:00,10.9,-4.9,31.00,West,270,0.0,0.0,48,0.00,,,0.00,Weather View 32 v70,2013-02-19 12:40:00,
2013-02-19 05:45:00,10.8,-5.1,31.00,West,270,0.0,0.0,48,0.00,,,0.00,Weather View 32 v70,2013-02-19 12:45:00,
2013-02-19 05:50:00,10.4,-5.4,31.00,West,270,0.0,0.0,48,0.00,,,0.00,Weather View 32 v70,2013-02-19 12:50:00,
2013-02-19 05:55:00,10.2,-5.6,31.00,West,270,0.0,0.0,48,0.00,,,0.00,Weather View 32 v70,2013-02-19 12:55:00,
2013-02-19 06:00:00,10.0,-5.7,31.00,West,268,0.0,0.0,48,0.00,,,0.00,Weather View 32 v70,2013-02-19 13:00:00,
2013-02-19 06:05:00,9.7,-6.1,31.00,West,268,0.0,0.0,48,0.00,,,0.00,Weather View 32 v70,2013-02-19 13:05:00,
2013-02-19 06:10:00,9.5,-6.2,31.00,West,266,0.0,0.0,48,0.00,,,0.00,Weather View 32 v70,2013-02-19 13:10:00,
2013-02-19 06:15:00,9.3,-6.4,31.00,West,266,0.0,0.0,48,0.00,,,0.00,Weather View 32 v70,2013-02-19 13:15:00,
2013-02-19 06:20:00,9.1,-6.6,31.00,West,265,0.0,0.0,48,0.00,,,0.00,Weather View 32 v70,2013-02-19 13:20:00,
2013-02-19 06:25:00,8.6,-7.1,31.00,West,264,0.0,0.0,48,0.00,,,0.00,Weather View 32 v70,2013-02-19 13:25:00,
2013-02-19 06:30:00,8.4,-7.2,31.00,WSW,248,0.0,0.0,48,0.00,,,0.00,Weather View 32 v70,2013-02-19 13:30:00,
2013-02-19 06:35:00,8.4,-7.2,31.00,WSW,248,0.0,0.0,48,0.00,,,0.00,Weather View 32 v70,2013-02-19 13:35:00,
2013-02-19 06:40:00,8.4,-7.2,31.00,WSW,248,0.0,0.0,48,0.00,,,0.00,Weather View 32 v70,2013-02-19 13:40:00,
2013-02-19 06:45:00,8.1,-7.6,31.00,WSW,248,0.0,0.0,48,0.00,,,0.00,Weather View 32 v70,2013-02-19 13:45:00,
2013-02-19 06:50:00,8.1,-7.6,31.00,WSW,248,0.0,0.0,48,0.00,,,0.00,Weather View 32 v70,2013-02-19 13:50:00,
2013-02-19 06:55:00,8.1,-7.6,31.00,WSW,248,0.0,0.0,48,0.00,,,0.00,Weather View 32 v70,2013-02-19 13:55:00,
2013-02-19 07:00:00,7.9,-7.7,31.00,WSW,248,0.0,0.0,48,0.00,,,0.00,Weather View 32 v70,2013-02-19 14:00:00,
2013-02-19 07:05:00,7.9,-7.7,31.00,WSW,248,0.0,0.0,48,0.00,,,0.00,Weather View 32 v70,2013-02-19 14:05:00,
2013-02-19 07:10:00,7.9,-7.7,31.00,WSW,248,0.0,0.0,48,0.00,,,0.00,Weather View 32 v70,2013-02-19 14:10:00,
2013-02-19 07:15:00,8.2,-7.4,31.00,WSW,248,0.0,0.0,48,0.00,,,0.00,Weather View 32 v70,2013-02-19 14:15:00,
2013-02-19 07:20:00,8.6,-7.1,31.00,WSW,248,0.0,0.0,48,0.00,,,0.00,Weather View 32 v70,2013-02-19 14:20:00,
2013-02-19 07:25:00,9.0,-6.7,31.00,WSW,248,0.0,0.0,48,0.00,,,0.00,Weather View 32 v70,2013-02-19 14:25:00,
2013-02-19 07:30:00,9.1,-6.6,31.00,WSW,248,0.0,0.0,48,0.00,,,0.00,Weather View 32 v70,2013-02-19 14:30:00,
2013-02-19 07:35:00,9.3,-6.4,31.00,WSW,248,0.0,0.0,48,0.00,,,0.00,Weather View 32 v70,2013-02-19 14:35:00,
2013-02-19 07:40:00,9.3,-6.4,31.00,WSW,249,0.0,0.0,48,0.00,,,0.00,Weather View 32 v70,2013-02-19 14:40:00,
2013-02-19 07:45:00,9.5,-6.2,31.00,WSW,248,0.0,0.0,48,0.00,,,0.00,Weather View 32 v70,2013-02-19 14:45:00,
2013-02-19 07:50:00,9.7,-6.1,31.00,North,0,0.0,0.0,48,0.00,,,0.00,Weather View 32 v70,2013-02-19 14:50:00,
2013-02-19 07:55:00,10.0,-5.7,31.00,WSW,248,0.0,0.0,48,0.00,,,0.00,Weather View 32 v70,2013-02-19 14:55:00,
2013-02-19 08:00:00,10.2,-5.6,31.00,WSW,248,0.0,0.0,48,0.00,,,0.00,Weather View 32 v70,2013-02-19 15:00:00,
2013-02-19 08:05:00,10.6,-5.2,31.00,WSW,248,0.0,0.0,48,0.00,,,0.00,Weather View 32 v70,2013-02-19 15:05:00,
2013-02-19 08:10:00,10.9,-4.9,31.00,WSW,248,0.0,0.0,48,0.00,,,0.00,Weather View 32 v70,2013-02-19 15:10:00,
2013-02-19 08:15:00,11.1,-4.7,31.00,WSW,248,0.0,0.0,48,0.00,,,0.00,Weather View 32 v70,2013-02-19 15:15:00,
2013-02-19 08:20:00,11.5,-4.4,31.00,WSW,249,0.0,0.0,48,0.00,,,0.00,Weather View 32 v70,2013-02-19 15:20:00,
2013-02-19 08:25:00,11.8,-4.1,31.00,WSW,248,0.0,0.0,48,0.00,,,0.00,Weather View 32 v70,2013-02-19 15:25:00,
2013-02-19 08:30:00,12.0,-3.9,31.00,WSW,248,0.0,0.0,48,0.00,,,0.00,Weather View 32 v70,2013-02-19 15:30:00,
2013-02-19 08:35:00,12.2,-3.7,31.00,WSW,248,0.0,0.0,48,0.00,,,0.00,Weather View 32 v70,2013-02-19 15:35:00,
2013-02-19 08:40:00,12.4,-3.6,31.00,WSW,248,0.0,0.0,48,0.00,,,0.00,Weather View 32 v70,2013-02-19 15:40:00,
2013-02-19 08:45:00,13.1,-2.9,31.00,WSW,248,0.0,0.0,48,0.00,,,0.00,Weather View 32 v70,2013-02-19 15:45:00,
2013-02-19 08:50:00,14.4,-2.6,31.00,WSW,248,0.0,0.0,46,0.00,,,0.00,Weather View 32 v70,2013-02-19 15:50:00,
2013-02-19 08:55:00,15.3,-2.3,31.00,WSW,248,0.0,0.0,45,0.00,,,0.00,Weather View 32 v70,2013-02-19 15:55:00,
2013-02-19 09:00:00,15.8,-1.8,31.00,WSW,248,0.0,0.0,45,0.00,,,0.00,Weather View 32 v70,2013-02-19 16:00:00,
2013-02-19 09:05:00,16.3,-1.8,31.00,WSW,248,0.0,0.0,44,0.00,,,0.00,Weather View 32 v70,2013-02-19 16:05:00,
2013-02-19 09:10:00,16.9,-1.3,31.00,WSW,248,0.0,0.0,44,0.00,,,0.00,Weather View 32 v70,2013-02-19 16:10:00,
2013-02-19 09:15:00,17.8,-0.4,31.00,WSW,248,0.0,0.0,44,0.00,,,0.00,Weather View 32 v70,2013-02-19 16:15:00,
2013-02-19 09:20:00,19.0,0.2,31.00,WSW,248,0.0,0.0,43,0.00,,,0.00,Weather View 32 v70,2013-02-19 16:20:00,
2013-02-19 09:25:00,20.5,1.0,31.00,WSW,248,0.0,0.0,42,0.00,,,0.00,Weather View 32 v70,2013-02-19 16:25:00,
2013-02-19 09:30:00,23.0,2.3,31.00,WSW,248,0.0,0.0,40,0.00,,,0.00,Weather View 32 v70,2013-02-19 16:30:00,
2013-02-19 09:35:00,24.1,0.4,31.00,WSW,248,0.0,0.0,35,0.00,,,0.00,Weather View 32 v70,2013-02-19 16:35:00,
2013-02-19 09:40:00,24.6,0.2,31.00,WSW,248,0.0,0.0,34,0.00,,,0.00,Weather View 32 v70,2013-02-19 16:40:00,
2013-02-19 09:45:00,25.3,0.9,31.00,WSW,248,0.0,0.0,34,0.00,,,0.00,Weather View 32 v70,2013-02-19 16:45:00,
2013-02-19 09:50:00,26.1,1.5,31.00,WSW,248,0.0,0.0,34,0.00,,,0.00,Weather View 32 v70,2013-02-19 16:50:00,
2013-02-19 09:55:00,27.0,2.9,31.00,WSW,248,0.0,0.0,35,0.00,,,0.00,Weather View 32 v70,2013-02-19 16:55:00,
2013-02-19 10:00:00,27.9,3.7,31.00,WSW,248,0.0,0.0,35,0.00,,,0.00,Weather View 32 v70,2013-02-19 17:00:00,
2013-02-19 10:05:00,28.6,3.1,31.00,WSW,248,0.0,0.0,33,0.00,,,0.00,Weather View 32 v70,2013-02-19 17:05:00,
2013-02-19 10:10:00,29.3,3.7,31.00,WSW,248,0.0,0.0,33,0.00,,,0.00,Weather View 32 v70,2013-02-19 17:10:00,
2013-02-19 10:15:00,30.2,3.9,31.00,WSW,248,0.0,0.0,32,0.00,,,0.00,Weather View 32 v70,2013-02-19 17:15:00,
2013-02-19 10:20:00,30.7,-2.7,31.00,WSW,248,0.0,0.0,23,0.00,,,0.00,Weather View 32 v70,2013-02-19 17:20:00,
2013-02-19 10:25:00,31.1,-2.4,31.00,WSW,248,0.0,0.0,23,0.00,,,0.00,Weather View 32 v70,2013-02-19 17:25:00,
2013-02-19 10:30:00,31.6,-1.9,31.00,WSW,248,0.0,0.0,23,0.00,,,0.00,Weather View 32 v70,2013-02-19 17:30:00,
2013-02-19 10:35:00,32.5,-1.2,31.00,WSW,248,0.0,0.0,23,0.00,,,0.00,Weather View 32 v70,2013-02-19 17:35:00,
2013-02-19 10:40:00,32.7,-1.0,31.00,WSW,248,0.0,0.0,23,0.00,,,0.00,Weather View 32 v70,2013-02-19 17:40:00,
2013-02-19 10:45:00,33.1,-0.7,31.00,ENE,71,0.0,0.0,23,0.00,,,0.00,Weather View 32 v70,2013-02-19 17:45:00,
2013-02-19 10:50:00,34.0,-0.9,31.00,ENE,70,0.0,0.0,22,0.00,,,0.00,Weather View 32 v70,2013-02-19 17:50:00,
2013-02-19 10:55:00,34.9,-0.1,31.00,ENE,69,0.0,0.0,22,0.00,,,0.00,Weather View 32 v70,2013-02-19 17:55:00,
2013-02-19 11:00:00,36.1,0.9,31.00,SE,133,0.0,0.0,22,0.00,,,0.00,Weather View 32 v70,2013-02-19 18:00:00,
2013-02-19 11:05:00,37.9,1.4,31.00,ESE,105,0.0,5.0,21,0.00,,,0.00,Weather View 32 v70,2013-02-19 18:05:00,
2013-02-19 11:10:00,41.0,4.0,31.00,East,81,0.0,5.0,21,0.00,,,0.00,Weather View 32 v70,2013-02-19 18:10:00,
2013-02-19 11:15:00,44.6,5.9,31.00,ENE,71,7.0,7.0,20,0.00,,,0.00,Weather View 32 v70,2013-02-19 18:15:00,
2013-02-19 11:20:00,46.4,6.3,31.00,East,84,0.0,7.0,19,0.00,,,0.00,Weather View 32 v70,2013-02-19 18:20:00,
2013-02-19 11:25:00,46.8,6.6,31.00,ENE,78,6.0,7.0,19,0.00,,,0.00,Weather View 32 v70,2013-02-19 18:25:00,
2013-02-19 11:30:00,46.2,7.3,31.00,ENE,70,3.0,7.0,20,0.00,,,0.00,Weather View 32 v70,2013-02-19 18:30:00,
2013-02-19 11:35:00,44.8,6.1,31.00,ENE,77,6.0,7.0,20,0.00,,,0.00,Weather View 32 v70,2013-02-19 18:35:00,
2013-02-19 11:40:00,44.2,5.7,31.00,ENE,68,8.0,8.0,20,0.00,,,0.00,Weather View 32 v70,2013-02-19 18:40:00,
2013-02-19 11:45:00,46.6,6.5,31.00,SSW,199,0.0,8.0,19,0.00,,,0.00,Weather View 32 v70,2013-02-19 18:45:00,
2013-02-19 11:50:00,43.7,5.2,31.00,NNE,15,8.0,8.0,20,0.00,,,0.00,Weather View 32 v70,2013-02-19 18:50:00,
2013-02-19 11:55:00,46.0,7.1,31.00,ESE,121,3.0,8.0,20,0.00,,,0.00,Weather View 32 v70,2013-02-19 18:55:00,
2013-02-19 12:00:00,43.7,5.2,31.00,ENE,64,6.0,11.0,20,0.00,,,0.00,Weather View 32 v70,2013-02-19 19:00:00,
2013-02-19 12:04:00,43.0,4.6,31.00,East,95,0.0,11.0,20,0.00,,,0.00,Weather View 32 v70,2013-02-19 19:04:00,
2013-02-19 12:10:00,43.0,4.6,31.00,ENE,68,4.0,11.0,20,0.00,,,0.00,Weather View 32 v70,2013-02-19 19:10:00,
2013-02-19 12:14:00,44.1,5.5,31.00,East,89,0.0,11.0,20,0.00,,,0.00,Weather View 32 v70,2013-02-19 19:14:00,
2013-02-19 12:19:00,44.8,6.1,31.00,ENE,76,3.0,11.0,20,0.00,,,0.00,Weather View 32 v70,2013-02-19 19:19:00,
2013-02-19 12:24:00,42.8,4.4,31.00,NNE,19,2.0,11.0,20,0.00,,,0.00,Weather View 32 v70,2013-02-19 19:24:00,
2013-02-19 12:29:00,42.8,4.4,31.00,ENE,67,6.0,11.0,20,0.00,,,0.00,Weather View 32 v70,2013-02-19 19:29:00,
2013-02-19 12:34:00,43.5,5.1,31.00,South,189,0.0,11.0,20,0.00,,,0.00,Weather View 32 v70,2013-02-19 19:34:00,
2013-02-19 12:39:00,44.4,5.8,31.00,East,80,0.0,11.0,20,0.00,,,0.00,Weather View 32 v70,2013-02-19 19:39:00,
2013-02-19 12:44:00,42.8,4.4,31.00,ENE,63,5.0,11.0,20,0.00,,,0.00,Weather View 32 v70,2013-02-19 19:44:00,
2013-02-19 12:49:00,42.3,5.1,31.00,ENE,77,0.0,11.0,21,0.00,,,0.00,Weather View 32 v70,2013-02-19 19:49:00,
2013-02-19 12:54:00,42.1,4.9,31.00,South,190,3.0,11.0,21,0.00,,,0.00,Weather View 32 v70,2013-02-19 19:54:00,
2013-02-19 12:59:00,41.7,4.6,31.00,East,93,5.0,8.0,21,0.00,,,0.00,Weather View 32 v70,2013-02-19 19:59:00,
2013-02-19 13:04:00,41.7,4.6,31.00,ENE,73,4.0,7.0,21,0.00,,,0.00,Weather View 32 v70,2013-02-19 20:04:00,
2013-02-19 13:09:00,41.2,4.2,31.00,ENE,68,8.0,8.0,21,0.00,,,0.00,Weather View 32 v70,2013-02-19 20:09:00,
2013-02-19 13:14:00,40.8,3.9,31.00,East,82,5.0,8.0,21,0.00,,,0.00,Weather View 32 v70,2013-02-19 20:14:00,
2013-02-19 13:19:00,41.0,4.0,31.00,ENE,72,0.0,8.0,21,0.00,,,0.00,Weather View 32 v70,2013-02-19 20:19:00,
2013-02-19 13:24:00,41.7,4.6,31.00,North,353,0.0,8.0,21,0.00,,,0.00,Weather View 32 v70,2013-02-19 20:24:00,
2013-02-19 13:29:00,42.6,5.4,31.00,South,191,0.0,8.0,21,0.00,,,0.00,Weather View 32 v70,2013-02-19 20:29:00,
2013-02-19 13:31:00,43.0,4.6,31.00,ENE,74,3.0,8.0,20,0.00,,,0.00,Weather View 32 v70,2013-02-19 20:31:00,
2013-02-19 13:32:00,43.0,4.6,31.00,ESE,117,4.0,8.0,20,0.00,,,0.00,Weather View 32 v70,2013-02-19 20:32:00,
2013-02-19 13:42:00,43.0,4.6,31.00,SSE,156,3.0,8.0,20,0.00,,,0.00,Weather View 32 v70,2013-02-19 20:42:00,
2013-02-19 13:47:00,0.0,4.8,31.00,North,0,0.0,8.0,0,0.00,,,0.00,Weather View 32 v70,2013-02-19 20:47:00,
2013-02-19 13:52:00,0.0,4.8,31.00,North,0,0.0,8.0,0,0.00,,,0.00,Weather View 32 v70,2013-02-19 20:52:00,
2013-02-19 13:57:00,0.0,4.8,31.00,North,0,0.0,8.0,0,0.00,,,0.00,Weather View 32 v70,2013-02-19 20:57:00,
2013-02-19 14:02:00,0.0,4.8,31.00,North,0,0.0,8.0,0,0.00,,,0.00,Weather View 32 v70,2013-02-19 21:02:00,
2013-02-19 14:07:00,0.0,4.8,31.00,North,0,0.0,8.0,0,0.00,,,0.00,Weather View 32 v70,2013-02-19 21:07:00,
2013-02-19 14:12:00,0.0,4.8,31.00,North,0,0.0,8.0,0,0.00,,,0.00,Weather View 32 v70,2013-02-19 21:12:00,
2013-02-19 14:17:00,0.0,4.8,31.00,North,0,0.0,8.0,0,0.00,,,0.00,Weather View 32 v70,2013-02-19 21:17:00,
2013-02-19 14:22:00,0.0,4.8,31.00,North,0,0.0,8.0,0,0.00,,,0.00,Weather View 32 v70,2013-02-19 21:22:00,
2013-02-19 14:27:00,0.0,4.8,31.00,North,0,0.0,5.0,0,0.00,,,0.00,Weather View 32 v70,2013-02-19 21:27:00,
2013-02-19 14:32:00,0.0,4.8,31.00,North,0,0.0,5.0,0,0.00,,,0.00,Weather View 32 v70,2013-02-19 21:32:00,
2013-02-19 14:37:00,0.0,4.8,31.00,North,0,0.0,4.0,0,0.00,,,0.00,Weather View 32 v70,2013-02-19 21:37:00,
2013-02-19 14:42:00,0.0,4.8,31.00,North,0,0.0,4.0,0,0.00,,,0.00,Weather View 32 v70,2013-02-19 21:42:00,
2013-02-19 14:47:00,0.0,4.8,31.00,North,0,0.0,0.0,0,0.00,,,0.00,Weather View 32 v70,2013-02-19 21:47:00,
2013-02-19 14:52:00,0.0,4.8,31.00,North,0,0.0,0.0,0,0.00,,,0.00,Weather View 32 v70,2013-02-19 21:52:00,
2013-02-19 14:57:00,0.0,4.8,31.00,North,0,0.0,0.0,0,0.00,,,0.00,Weather View 32 v70,2013-02-19 21:57:00,
2013-02-19 15:02:00,0.0,4.8,31.00,North,0,0.0,0.0,0,0.00,,,0.00,Weather View 32 v70,2013-02-19 22:02:00,
2013-02-19 15:07:00,0.0,4.8,31.00,North,0,0.0,0.0,0,0.00,,,0.00,Weather View 32 v70,2013-02-19 22:07:00,
2013-02-19 15:12:00,0.0,4.8,31.00,North,0,0.0,0.0,0,0.00,,,0.00,Weather View 32 v70,2013-02-19 22:12:00,
2013-02-19 15:17:00,0.0,4.8,31.00,North,0,0.0,0.0,0,0.00,,,0.00,Weather View 32 v70,2013-02-19 22:17:00,
2013-02-19 15:22:00,0.0,4.8,31.00,North,0,0.0,0.0,0,0.00,,,0.00,Weather View 32 v70,2013-02-19 22:22:00,
2013-02-19 15:27:00,0.0,4.8,31.00,North,0,0.0,0.0,0,0.00,,,0.00,Weather View 32 v70,2013-02-19 22:27:00,
2013-02-19 15:32:00,0.0,4.8,31.00,North,0,0.0,0.0,0,0.00,,,0.00,Weather View 32 v70,2013-02-19 22:32:00,
2013-02-19 15:37:00,0.0,4.8,31.00,North,0,0.0,0.0,0,0.00,,,0.00,Weather View 32 v70,2013-02-19 22:37:00,
2013-02-19 15:42:00,0.0,4.8,31.00,North,0,0.0,0.0,0,0.00,,,0.00,Weather View 32 v70,2013-02-19 22:42:00,
2013-02-19 15:47:00,0.0,4.8,31.00,North,0,0.0,0.0,0,0.00,,,0.00,Weather View 32 v70,2013-02-19 22:47:00,
2013-02-19 15:52:00,0.0,4.8,31.00,North,0,0.0,0.0,0,0.00,,,0.00,Weather View 32 v70,2013-02-19 22:52:00,
2013-02-19 15:57:00,0.0,4.8,31.00,North,0,0.0,0.0,0,0.00,,,0.00,Weather View 32 v70,2013-02-19 22:57:00,
2013-02-19 16:02:00,0.0,4.8,31.00,North,0,0.0,0.0,0,0.00,,,0.00,Weather View 32 v70,2013-02-19 23:02:00,
2013-02-19 16:07:00,0.0,4.8,31.00,North,0,0.0,0.0,0,0.00,,,0.00,Weather View 32 v70,2013-02-19 23:07:00,
2013-02-19 16:12:00,0.0,4.8,31.00,North,0,0.0,0.0,0,0.00,,,0.00,Weather View 32 v70,2013-02-19 23:12:00,
2013-02-19 16:17:00,0.0,4.8,31.00,North,0,0.0,0.0,0,0.00,,,0.00,Weather View 32 v70,2013-02-19 23:17:00,
2013-02-19 16:22:00,0.0,4.8,31.00,North,0,0.0,0.0,0,0.00,,,0.00,Weather View 32 v70,2013-02-19 23:22:00,
2013-02-19 16:27:00,0.0,4.8,31.00,North,0,0.0,0.0,0,0.00,,,0.00,Weather View 32 v70,2013-02-19 23:27:00,
2013-02-19 16:32:00,0.0,4.8,31.00,North,0,0.0,0.0,0,0.00,,,0.00,Weather View 32 v70,2013-02-19 23:32:00,
2013-02-19 16:37:00,0.0,4.8,31.00,North,0,0.0,0.0,0,0.00,,,0.00,Weather View 32 v70,2013-02-19 23:37:00,
2013-02-19 16:42:00,0.0,4.8,31.00,North,0,0.0,0.0,0,0.00,,,0.00,Weather View 32 v70,2013-02-19 23:42:00,
2013-02-19 16:47:00,0.0,4.8,31.00,North,0,0.0,0.0,0,0.00,,,0.00,Weather View 32 v70,2013-02-19 23:47:00,
2013-02-19 16:52:00,0.0,4.8,31.00,North,0,0.0,0.0,0,0.00,,,0.00,Weather View 32 v70,2013-02-19 23:52:00,
2013-02-19 16:57:00,0.0,4.8,31.00,North,0,0.0,0.0,0,0.00,,,0.00,Weather View 32 v70,2013-02-19 23:57:00,
2013-02-19 17:02:00,0.0,4.8,31.00,North,0,0.0,0.0,0,0.00,,,0.00,Weather View 32 v70,2013-02-20 00:02:00,
2013-02-19 17:07:00,0.0,4.8,31.00,North,0,0.0,0.0,0,0.00,,,0.00,Weather View 32 v70,2013-02-20 00:07:00,
2013-02-19 17:12:00,0.0,4.8,31.00,North,0,0.0,0.0,0,0.00,,,0.00,Weather View 32 v70,2013-02-20 00:12:00,
2013-02-19 17:17:00,27.9,2.5,31.00,ENE,78,0.0,0.0,33,0.00,,,0.00,Weather View 32 v70,2013-02-20 00:17:00,
2013-02-19 17:22:00,27.5,2.8,31.00,ENE,78,0.0,0.0,34,0.00,,,0.00,Weather View 32 v70,2013-02-20 00:22:00,
2013-02-19 17:27:00,27.1,2.5,31.00,ENE,78,0.0,0.0,34,0.00,,,0.00,Weather View 32 v70,2013-02-20 00:27:00,
2013-02-19 17:32:00,27.0,2.9,31.00,ENE,78,0.0,0.0,35,0.00,,,0.00,Weather View 32 v70,2013-02-20 00:32:00,
2013-02-19 17:37:00,26.6,3.8,31.00,ENE,78,0.0,0.0,37,0.00,,,0.00,Weather View 32 v70,2013-02-20 00:37:00,
2013-02-19 17:42:00,26.2,4.6,31.00,ENE,78,0.0,0.0,39,0.00,,,0.00,Weather View 32 v70,2013-02-20 00:42:00,
2013-02-19 17:47:00,26.1,4.5,31.00,NE,37,0.0,0.0,39,0.00,,,0.00,Weather View 32 v70,2013-02-20 00:47:00,
2013-02-19 17:52:00,26.1,4.5,31.00,NE,37,0.0,0.0,39,0.00,,,0.00,Weather View 32 v70,2013-02-20 00:52:00,
2013-02-19 17:57:00,25.9,4.9,31.00,NE,37,0.0,0.0,40,0.00,,,0.00,Weather View 32 v70,2013-02-20 00:57:00,
2013-02-19 18:02:00,25.7,4.7,31.00,NE,37,0.0,0.0,40,0.00,,,0.00,Weather View 32 v70,2013-02-20 01:02:00,
2013-02-19 18:07:00,25.7,5.8,31.00,NE,37,0.0,0.0,42,0.00,,,0.00,Weather View 32 v70,2013-02-20 01:07:00,
2013-02-19 18:12:00,25.7,5.8,31.00,NE,37,0.0,0.0,42,0.00,,,0.00,Weather View 32 v70,2013-02-20 01:12:00,
2013-02-19 18:17:00,25.5,5.6,31.00,NE,37,0.0,0.0,42,0.00,,,0.00,Weather View 32 v70,2013-02-20 01:17:00,
2013-02-19 18:22:00,25.5,5.6,31.00,NE,37,0.0,0.0,42,0.00,,,0.00,Weather View 32 v70,2013-02-20 01:22:00,
2013-02-19 18:27:00,25.3,5.4,31.00,NE,37,0.0,0.0,42,0.00,,,0.00,Weather View 32 v70,2013-02-20 01:27:00,
2013-02-19 18:32:00,25.2,5.8,31.00,NE,37,0.0,0.0,43,0.00,,,0.00,Weather View 32 v70,2013-02-20 01:32:00,
2013-02-19 18:37:00,24.8,6.0,31.00,NE,37,0.0,0.0,44,0.00,,,0.00,Weather View 32 v70,2013-02-20 01:37:00,
2013-02-19 18:42:00,24.6,5.3,31.00,NE,37,0.0,0.0,43,0.00,,,0.00,Weather View 32 v70,2013-02-20 01:42:00,
2013-02-19 18:47:00,24.4,5.6,31.00,NE,37,0.0,0.0,44,0.00,,,0.00,Weather View 32 v70,2013-02-20 01:47:00,
2013-02-19 18:52:00,24.3,5.5,31.00,NE,37,0.0,0.0,44,0.00,,,0.00,Weather View 32 v70,2013-02-20 01:52:00,
2013-02-19 18:57:00,24.1,5.8,31.00,NE,37,0.0,0.0,45,0.00,,,0.00,Weather View 32 v70,2013-02-20 01:57:00,
2013-02-19 19:02:00,23.9,5.6,31.00,NE,37,0.0,0.0,45,0.00,,,0.00,Weather View 32 v70,2013-02-20 02:02:00,
2013-02-19 19:07:00,23.5,5.3,31.00,NE,37,0.0,0.0,45,0.00,,,0.00,Weather View 32 v70,2013-02-20 02:07:00,
2013-02-19 19:12:00,23.2,5.5,31.00,NE,37,0.0,0.0,46,0.00,,,0.00,Weather View 32 v70,2013-02-20 02:12:00,
2013-02-19 19:17:00,22.8,5.6,31.00,NE,37,0.0,0.0,47,0.00,,,0.00,Weather View 32 v70,2013-02-20 02:17:00,
2013-02-19 19:22:00,22.6,5.4,31.00,NE,37,0.0,0.0,47,0.00,,,0.00,Weather View 32 v70,2013-02-20 02:22:00,
2013-02-19 19:27:00,22.5,5.7,31.00,NE,37,0.0,0.0,48,0.00,,,0.00,Weather View 32 v70,2013-02-20 02:27:00,
2013-02-19 19:32:00,22.5,6.2,31.00,NE,37,0.0,0.0,49,0.00,,,0.00,Weather View 32 v70,2013-02-20 02:32:00,
2013-02-19 19:37:00,22.1,5.8,31.00,NE,37,0.0,0.0,49,0.00,,,0.00,Weather View 32 v70,2013-02-20 02:37:00,
2013-02-19 19:42:00,21.9,6.1,31.00,NE,37,0.0,0.0,50,0.00,,,0.00,Weather View 32 v70,2013-02-20 02:42:00,
2013-02-19 19:47:00,21.9,5.7,31.00,NE,37,0.0,0.0,49,0.00,,,0.00,Weather View 32 v70,2013-02-20 02:47:00,
2013-02-19 19:52:00,21.9,6.6,31.00,NE,37,0.0,0.0,51,0.00,,,0.00,Weather View 32 v70,2013-02-20 02:52:00,
2013-02-19 19:57:00,21.7,5.1,31.00,NE,37,0.0,0.0,48,0.00,,,0.00,Weather View 32 v70,2013-02-20 02:57:00,
2013-02-19 20:02:00,21.7,5.1,31.00,NE,37,0.0,0.0,48,0.00,,,0.00,Weather View 32 v70,2013-02-20 03:02:00,
2013-02-19 20:07:00,21.7,5.5,31.00,NE,37,0.0,0.0,49,0.00,,,0.00,Weather View 32 v70,2013-02-20 03:07:00,
2013-02-19 20:12:00,21.7,6.0,31.00,NE,37,0.0,0.0,50,0.00,,,0.00,Weather View 32 v70,2013-02-20 03:12:00,
2013-02-19 20:17:00,21.7,5.5,31.00,NE,37,0.0,0.0,49,0.00,,,0.00,Weather View 32 v70,2013-02-20 03:17:00,
2013-02-19 20:22:00,21.6,5.8,31.00,NE,37,0.0,0.0,50,0.00,,,0.00,Weather View 32 v70,2013-02-20 03:22:00,
2013-02-19 20:27:00,21.6,6.2,31.00,NE,37,0.0,0.0,51,0.00,,,0.00,Weather View 32 v70,2013-02-20 03:27:00,
2013-02-19 20:32:00,21.4,6.1,31.00,NE,37,0.0,0.0,51,0.00,,,0.00,Weather View 32 v70,2013-02-20 03:32:00,
2013-02-19 20:37:00,21.4,6.1,31.00,NE,37,0.0,0.0,51,0.00,,,0.00,Weather View 32 v70,2013-02-20 03:37:00,
2013-02-19 20:42:00,21.2,4.6,31.00,NE,37,0.0,0.0,48,0.00,,,0.00,Weather View 32 v70,2013-02-20 03:42:00,
2013-02-19 20:47:00,21.2,5.0,31.00,NE,37,0.0,0.0,49,0.00,,,0.00,Weather View 32 v70,2013-02-20 03:47:00,
2013-02-19 20:52:00,21.2,5.9,31.00,NE,37,0.0,0.0,51,0.00,,,0.00,Weather View 32 v70,2013-02-20 03:52:00,
2013-02-19 20:57:00,21.0,6.1,31.00,NE,37,0.0,0.0,52,0.00,,,0.00,Weather View 32 v70,2013-02-20 03:57:00,
2013-02-19 21:02:00,21.0,6.6,31.00,NE,37,0.0,0.0,53,0.00,,,0.00,Weather View 32 v70,2013-02-20 04:02:00,
2013-02-19 21:07:00,21.0,6.6,31.00,NE,37,0.0,0.0,53,0.00,,,0.00,Weather View 32 v70,2013-02-20 04:07:00,
2013-02-19 21:12:00,21.0,6.6,31.00,NE,37,0.0,0.0,53,0.00,,,0.00,Weather View 32 v70,2013-02-20 04:12:00,
2013-02-19 21:17:00,21.0,6.6,31.00,NE,37,0.0,0.0,53,0.00,,,0.00,Weather View 32 v70,2013-02-20 04:17:00,
2013-02-19 21:22:00,20.8,6.4,31.00,NE,37,0.0,0.0,53,0.00,,,0.00,Weather View 32 v70,2013-02-20 04:22:00,
2013-02-19 21:27:00,20.8,6.4,31.00,NE,37,0.0,0.0,53,0.00,,,0.00,Weather View 32 v70,2013-02-20 04:27:00,
2013-02-19 21:32:00,20.7,6.2,31.00,NE,37,0.0,0.0,53,0.00,,,0.00,Weather View 32 v70,2013-02-20 04:32:00,
2013-02-19 21:37:00,20.7,6.2,31.00,NE,37,0.0,0.0,53,0.00,,,0.00,Weather View 32 v70,2013-02-20 04:37:00,
2013-02-19 21:42:00,20.5,6.1,31.00,NE,37,0.0,0.0,53,0.00,,,0.00,Weather View 32 v70,2013-02-20 04:42:00,
2013-02-19 21:47:00,20.5,6.1,31.00,NE,37,0.0,0.0,53,0.00,,,0.00,Weather View 32 v70,2013-02-20 04:47:00,
2013-02-19 21:52:00,20.3,5.9,31.00,NE,37,0.0,0.0,53,0.00,,,0.00,Weather View 32 v70,2013-02-20 04:52:00,
2013-02-19 21:57:00,20.3,6.3,31.00,NE,37,0.0,0.0,54,0.00,,,0.00,Weather View 32 v70,2013-02-20 04:57:00,
2013-02-19 22:00:00,20.3,6.3,31.00,NE,37,0.0,0.0,54,0.00,,,0.00,Weather View 32 v70,2013-02-20 05:00:00,
2013-02-19 22:05:00,20.1,6.1,31.00,NE,37,0.0,0.0,54,0.00,,,0.00,Weather View 32 v70,2013-02-20 05:05:00,
2013-02-19 22:10:00,20.1,6.1,31.00,NE,37,0.0,0.0,54,0.00,,,0.00,Weather View 32 v70,2013-02-20 05:10:00,
2013-02-19 22:15:00,19.9,6.0,31.00,NE,37,0.0,0.0,54,0.00,,,0.00,Weather View 32 v70,2013-02-20 05:15:00,
2013-02-19 22:20:00,19.8,6.2,31.00,NE,37,0.0,0.0,55,0.00,,,0.00,Weather View 32 v70,2013-02-20 05:20:00,
2013-02-19 22:25:00,19.8,6.2,31.00,NE,37,0.0,0.0,55,0.00,,,0.00,Weather View 32 v70,2013-02-20 05:25:00,
2013-02-19 22:30:00,19.6,6.0,31.00,NE,37,0.0,0.0,55,0.00,,,0.00,Weather View 32 v70,2013-02-20 05:30:00,
2013-02-19 22:35:00,19.6,6.0,31.00,NE,37,0.0,0.0,55,0.00,,,0.00,Weather View 32 v70,2013-02-20 05:35:00,
2013-02-19 22:40:00,19.6,5.6,31.00,NE,37,0.0,0.0,54,0.00,,,0.00,Weather View 32 v70,2013-02-20 05:40:00,
2013-02-19 22:45:00,19.4,5.9,31.00,NE,37,0.0,0.0,55,0.00,,,0.00,Weather View 32 v70,2013-02-20 05:45:00,
2013-02-19 22:50:00,19.4,5.9,31.00,NE,37,0.0,0.0,55,0.00,,,0.00,Weather View 32 v70,2013-02-20 05:50:00,
2013-02-19 22:55:00,19.2,6.1,31.00,NE,37,0.0,0.0,56,0.00,,,0.00,Weather View 32 v70,2013-02-20 05:55:00,
2013-02-19 23:00:00,19.2,6.1,31.00,NE,37,0.0,0.0,56,0.00,,,0.00,Weather View 32 v70,2013-02-20 06:00:00,
2013-02-19 23:05:00,19.0,5.9,31.00,NE,37,0.0,0.0,56,0.00,,,0.00,Weather View 32 v70,2013-02-20 06:05:00,
2013-02-19 23:10:00,19.0,5.9,31.00,NE,37,0.0,0.0,56,0.00,,,0.00,Weather View 32 v70,2013-02-20 06:10:00,
2013-02-19 23:15:00,18.9,5.8,31.00,NE,37,0.0,0.0,56,0.00,,,0.00,Weather View 32 v70,2013-02-20 06:15:00,
2013-02-19 23:20:00,18.7,6.0,31.00,NE,37,0.0,0.0,57,0.00,,,0.00,Weather View 32 v70,2013-02-20 06:20:00,
2013-02-19 23:25:00,18.7,6.0,31.00,NE,37,0.0,0.0,57,0.00,,,0.00,Weather View 32 v70,2013-02-20 06:25:00,
2013-02-19 23:30:00,18.5,5.8,31.00,NE,37,0.0,0.0,57,0.00,,,0.00,Weather View 32 v70,2013-02-20 06:30:00,
2013-02-19 23:35:00,18.3,5.6,31.00,NE,37,0.0,0.0,57,0.00,,,0.00,Weather View 32 v70,2013-02-20 06:35:00,
2013-02-19 23:40:00,18.3,6.0,31.00,NE,37,0.0,0.0,58,0.00,,,0.00,Weather View 32 v70,2013-02-20 06:40:00,
2013-02-19 23:45:00,18.3,6.0,31.00,West,262,0.0,0.0,58,0.00,,,0.00,Weather View 32 v70,2013-02-20 06:45:00,
2013-02-19 23:50:00,18.3,6.0,31.00,West,262,0.0,0.0,58,0.00,,,0.00,Weather View 32 v70,2013-02-20 06:50:00,
2013-02-19 23:55:00,18.1,6.2,31.00,West,262,0.0,0.0,59,0.00,,,0.00,Weather View 32 v70,2013-02-20 06:55:00,